createdAt,value
2023-05-22T00:00:03.085Z,9.51
2023-05-22T00:05:06.960Z,9.39
2023-05-22T00:10:10.913Z,9.27
2023-05-22T00:15:14.014Z,9.14
2023-05-22T00:20:17.343Z,9.00
2023-05-22T00:25:20.857Z,8.88
2023-05-22T00:30:23.958Z,8.75
2023-05-22T00:35:27.069Z,8.63
2023-05-22T00:40:30.283Z,8.54
2023-05-22T00:45:33.295Z,8.46
2023-05-22T00:50:36.609Z,8.38
2023-05-22T00:55:40.286Z,8.28
2023-05-22T01:00:43.740Z,8.21
2023-05-22T01:05:46.754Z,8.16
2023-05-22T01:11:01.670Z,8.08
2023-05-22T01:16:30.141Z,7.98
2023-05-22T01:21:47.820Z,7.94
2023-05-22T01:27:08.625Z,7.91
2023-05-22T01:32:16.639Z,7.85
2023-05-22T01:37:22.820Z,7.80
2023-05-22T01:42:26.171Z,7.75
2023-05-22T01:47:29.367Z,7.73
2023-05-22T01:52:43.924Z,7.72
2023-05-22T01:57:59.867Z,7.75
2023-05-22T02:03:09.245Z,7.74
2023-05-22T02:08:14.754Z,7.65
2023-05-22T02:13:18.487Z,7.65
2023-05-22T02:18:29.728Z,7.75
2023-05-22T02:23:32.991Z,7.74
2023-05-22T02:28:36.100Z,7.70
2023-05-22T02:33:39.207Z,7.69
2023-05-22T02:38:42.323Z,7.83
2023-05-22T02:43:45.426Z,7.98
2023-05-22T02:48:48.539Z,8.10
2023-05-22T02:53:52.573Z,8.25
2023-05-22T02:58:57.136Z,8.43
2023-05-22T03:04:00.306Z,8.70
2023-05-22T03:09:04.601Z,9.20
2023-05-22T03:14:07.861Z,9.75
2023-05-22T03:19:15.713Z,10.50
2023-05-22T03:24:19.109Z,11.81
2023-05-22T03:29:22.342Z,13.01
2023-05-22T03:34:27.309Z,13.21
2023-05-22T03:39:30.587Z,13.33
2023-05-22T03:44:33.795Z,14.21
2023-05-22T03:49:36.800Z,15.18
2023-05-22T03:54:39.908Z,16.54
2023-05-22T03:59:42.927Z,18.55
2023-05-22T04:04:49.159Z,20.54
2023-05-22T04:09:52.403Z,22.23
2023-05-22T04:14:55.659Z,23.50
2023-05-22T04:19:58.810Z,24.36
2023-05-22T04:25:01.765Z,24.95
2023-05-22T04:30:07.478Z,24.74
2023-05-22T04:35:12.510Z,24.30
2023-05-22T04:40:16.420Z,24.60
2023-05-22T04:45:21.445Z,25.82
2023-05-22T04:50:25.165Z,26.47
2023-05-22T04:55:28.482Z,26.74
2023-05-22T05:00:32.605Z,27.13
2023-05-22T05:05:36.028Z,27.38
2023-05-22T05:10:39.542Z,27.95
2023-05-22T05:15:42.967Z,28.07
2023-05-22T05:20:46.438Z,27.93
2023-05-22T05:25:49.799Z,27.49
2023-05-22T05:30:53.006Z,26.73
2023-05-22T05:35:56.424Z,26.09
2023-05-22T05:40:59.550Z,25.72
2023-05-22T05:46:02.770Z,25.79
2023-05-22T05:51:05.969Z,25.88
2023-05-22T05:56:09.947Z,25.96
2023-05-22T06:01:13.422Z,25.62
2023-05-22T06:06:17.745Z,25.18
2023-05-22T06:11:22.415Z,24.65
2023-05-22T06:16:26.615Z,24.22
2023-05-22T06:21:29.839Z,23.81
2023-05-22T06:26:33.611Z,23.40
2023-05-22T06:31:38.768Z,23.16
2023-05-22T06:36:42.493Z,23.09
2023-05-22T06:41:45.858Z,23.24
2023-05-22T06:46:49.382Z,23.60
2023-05-22T06:51:52.816Z,24.42
2023-05-22T06:56:57.752Z,25.74
2023-05-22T07:02:01.161Z,27.18
2023-05-22T07:07:04.475Z,27.98
2023-05-22T07:12:08.543Z,28.84
2023-05-22T07:17:11.826Z,29.75
2023-05-22T07:22:15.593Z,30.20
2023-05-22T07:27:18.858Z,30.32
2023-05-22T07:32:22.425Z,30.00
2023-05-22T07:37:25.805Z,29.96
2023-05-22T07:42:30.432Z,30.17
2023-05-22T07:47:33.596Z,30.25
2023-05-22T07:52:36.855Z,30.47
2023-05-22T07:57:39.973Z,30.47
2023-05-22T08:02:44.071Z,30.96
2023-05-22T08:07:47.300Z,31.27
2023-05-22T08:12:50.537Z,31.97
2023-05-22T08:17:53.853Z,31.77
2023-05-22T08:22:57.152Z,31.84
2023-05-22T08:28:00.251Z,31.59
2023-05-22T08:33:03.477Z,30.91
2023-05-22T08:38:06.775Z,30.93
2023-05-22T08:43:09.890Z,31.27
2023-05-22T08:48:14.206Z,31.75
2023-05-22T08:53:19.180Z,30.96
2023-05-22T08:58:22.514Z,29.64
2023-05-22T09:03:29.084Z,28.45
2023-05-22T09:08:32.501Z,27.47
2023-05-22T09:13:38.895Z,26.67
2023-05-22T09:18:42.778Z,26.05
2023-05-22T09:23:51.108Z,25.76
2023-05-22T09:28:54.256Z,25.42
2023-05-22T09:33:57.595Z,25.20
2023-05-22T09:39:01.961Z,25.29
2023-05-22T09:44:16.312Z,25.51
2023-05-22T09:49:19.795Z,25.58
2023-05-22T09:54:26.368Z,25.17
2023-05-22T09:59:31.588Z,24.85
2023-05-22T10:04:35.065Z,25.01
2023-05-22T10:09:40.908Z,25.25
2023-05-22T10:14:44.150Z,25.45
2023-05-22T10:19:47.576Z,25.58
2023-05-22T10:24:52.326Z,25.71
2023-05-22T10:30:04.063Z,25.91
2023-05-22T10:35:38.878Z,25.95
2023-05-22T10:40:45.498Z,25.80
2023-05-22T10:45:48.809Z,26.00
2023-05-22T10:50:54.868Z,26.23
2023-05-22T10:56:02.786Z,25.82
2023-05-22T11:01:11.153Z,25.32
2023-05-22T11:06:32.559Z,25.24
2023-05-22T11:11:35.666Z,25.68
2023-05-22T11:16:39.521Z,26.23
2023-05-22T11:21:47.007Z,26.60
2023-05-22T11:27:06.910Z,26.55
2023-05-22T11:32:12.257Z,26.05
2023-05-22T11:37:16.506Z,25.42
2023-05-22T11:42:20.230Z,25.00
2023-05-22T11:47:23.469Z,24.79
2023-05-22T11:52:32.757Z,24.82
2023-05-22T11:57:36.963Z,24.97
2023-05-22T12:02:46.819Z,25.09
2023-05-22T12:07:50.498Z,25.27
2023-05-22T12:12:54.864Z,25.70
2023-05-22T12:17:58.165Z,26.35
2023-05-22T12:23:01.402Z,26.91
2023-05-22T12:28:07.147Z,27.03
2023-05-22T12:33:14.435Z,26.61
2023-05-22T12:38:21.382Z,26.08
2023-05-22T12:43:25.702Z,25.69
2023-05-22T12:48:29.000Z,25.49
2023-05-22T12:53:32.117Z,25.44
2023-05-22T12:58:35.330Z,25.36
2023-05-22T13:03:38.441Z,25.36
2023-05-22T13:08:41.751Z,25.27
2023-05-22T13:13:44.854Z,25.16
2023-05-22T13:18:48.221Z,25.23
2023-05-22T13:23:51.845Z,25.49
2023-05-22T13:28:55.102Z,25.99
2023-05-22T13:33:59.148Z,26.57
2023-05-22T13:39:03.058Z,27.10
2023-05-22T13:44:06.521Z,27.58
2023-05-22T13:49:09.691Z,27.98
2023-05-22T13:54:13.011Z,28.00
2023-05-22T13:59:16.111Z,27.73
2023-05-22T14:04:19.427Z,27.51
2023-05-22T14:09:22.740Z,27.26
2023-05-22T14:14:26.057Z,26.84
2023-05-22T14:19:29.334Z,26.28
2023-05-22T14:24:32.471Z,25.79
2023-05-22T14:29:35.925Z,25.40
2023-05-22T14:34:39.717Z,25.09
2023-05-22T14:39:42.828Z,24.94
2023-05-22T14:44:46.346Z,24.89
2023-05-22T14:49:49.456Z,24.81
2023-05-22T14:54:52.564Z,24.81
2023-05-22T14:59:55.875Z,24.97
2023-05-22T15:04:58.907Z,25.32
2023-05-22T15:10:02.509Z,25.66
2023-05-22T15:15:06.295Z,25.75
2023-05-22T15:20:10.630Z,25.74
2023-05-22T15:25:15.554Z,25.78
2023-05-22T15:30:20.792Z,25.78
2023-05-22T15:35:25.422Z,25.69
2023-05-22T15:40:28.438Z,25.54
2023-05-22T15:45:32.098Z,25.33
2023-05-22T15:50:35.358Z,25.17
2023-05-22T15:55:38.792Z,25.04
2023-05-22T16:00:42.096Z,24.83
2023-05-22T16:05:47.252Z,24.67
2023-05-22T16:10:50.359Z,24.55
2023-05-22T16:15:53.804Z,24.35
2023-05-22T16:20:56.885Z,24.15
2023-05-22T16:26:00.198Z,23.97
2023-05-22T16:31:03.540Z,23.79
2023-05-22T16:36:07.199Z,23.62
2023-05-22T16:41:10.344Z,23.52
2023-05-22T16:46:13.482Z,23.43
2023-05-22T16:51:16.878Z,23.39
2023-05-22T16:56:21.106Z,23.34
2023-05-22T17:01:24.486Z,23.36
2023-05-22T17:06:29.494Z,23.44
2023-05-22T17:11:33.214Z,23.47
2023-05-22T17:16:38.101Z,23.43
2023-05-22T17:21:41.466Z,23.36
2023-05-22T17:26:44.886Z,23.10
2023-05-22T17:31:48.292Z,22.77
2023-05-22T17:36:51.613Z,22.37
2023-05-22T17:41:54.719Z,21.99
2023-05-22T17:46:58.038Z,21.67
2023-05-22T17:52:01.144Z,21.43
2023-05-22T17:57:04.788Z,21.21
2023-05-22T18:02:09.799Z,21.02
2023-05-22T18:07:13.549Z,20.82
2023-05-22T18:12:31.063Z,20.60
2023-05-22T18:17:35.420Z,20.34
2023-05-22T18:22:40.144Z,20.09
2023-05-22T18:27:43.519Z,19.85
2023-05-22T18:32:46.740Z,19.62
2023-05-22T18:37:49.910Z,19.41
2023-05-22T18:42:53.122Z,19.20
2023-05-22T18:47:56.372Z,19.00
2023-05-22T18:52:59.692Z,18.77
2023-05-22T18:58:03.278Z,18.53
2023-05-22T19:03:06.656Z,18.29
2023-05-22T19:08:10.003Z,18.10
2023-05-22T19:13:13.117Z,18.00
2023-05-22T19:18:16.525Z,17.91
2023-05-22T19:23:19.638Z,17.80
2023-05-22T19:28:23.345Z,17.68
2023-05-22T19:33:27.181Z,17.60
2023-05-22T19:38:31.390Z,17.49
2023-05-22T19:43:35.069Z,17.40
2023-05-22T19:48:38.261Z,17.32
2023-05-22T19:53:41.872Z,17.22
2023-05-22T19:58:45.320Z,17.11
2023-05-22T20:03:48.626Z,17.01
2023-05-22T20:08:51.926Z,16.91
2023-05-22T20:13:55.696Z,16.80
2023-05-22T20:18:58.965Z,16.63
2023-05-22T20:24:06.130Z,16.46
2023-05-22T20:29:09.577Z,16.25
2023-05-22T20:34:12.890Z,16.02
2023-05-22T20:39:16.515Z,15.82
2023-05-22T20:44:23.763Z,15.66
2023-05-22T20:49:28.292Z,15.48
2023-05-22T20:54:34.815Z,15.25
2023-05-22T20:59:38.365Z,14.98
2023-05-22T21:04:41.681Z,14.72
2023-05-22T21:09:45.008Z,14.50
2023-05-22T21:14:48.424Z,14.32
2023-05-22T21:19:51.724Z,14.18
2023-05-22T21:24:55.048Z,14.06
2023-05-22T21:29:58.156Z,13.95
2023-05-22T21:35:01.259Z,13.84
2023-05-22T21:40:04.900Z,13.72
2023-05-22T21:45:08.717Z,13.60
2023-05-22T21:50:12.138Z,13.48
2023-05-22T21:55:15.807Z,13.39
2023-05-22T22:00:19.308Z,13.33
2023-05-22T22:05:22.368Z,13.27
2023-05-22T22:10:25.596Z,13.24
2023-05-22T22:15:28.792Z,13.22
2023-05-22T22:20:44.124Z,13.23
2023-05-22T22:25:49.483Z,13.20
2023-05-22T22:30:55.328Z,13.11
2023-05-22T22:35:58.836Z,13.01
2023-05-22T22:41:02.055Z,12.91
2023-05-22T22:46:05.606Z,12.77
2023-05-22T22:51:09.813Z,12.61
2023-05-22T22:56:13.132Z,12.44
2023-05-22T23:01:16.251Z,12.27
2023-05-22T23:06:19.643Z,12.14
2023-05-22T23:11:22.760Z,12.04
2023-05-22T23:16:26.013Z,11.92
2023-05-22T23:21:29.377Z,11.79
2023-05-22T23:26:33.671Z,11.70
2023-05-22T23:31:37.323Z,11.60
2023-05-22T23:36:40.552Z,11.51
2023-05-22T23:41:44.684Z,11.42
2023-05-22T23:46:50.144Z,11.31
2023-05-22T23:51:53.253Z,11.18
2023-05-22T23:56:56.264Z,11.06
